createdAt,value
2022-10-12T00:01:03.592Z,543.83
2022-10-12T00:03:31.789Z,567.37
2022-10-12T00:06:04.981Z,539.43
2022-10-12T00:08:35.545Z,499.33
2022-10-12T00:11:04.542Z,451.27
2022-10-12T00:13:32.680Z,438.20
2022-10-12T00:16:03.806Z,533.37
2022-10-12T00:18:32.126Z,545.67
2022-10-12T00:21:04.414Z,604.77
2022-10-12T00:23:35.035Z,610.43
2022-10-12T00:26:04.127Z,597.37
2022-10-12T00:28:33.216Z,585.80
2022-10-12T00:31:02.070Z,619.80
2022-10-12T00:33:30.301Z,604.83
2022-10-12T00:35:58.567Z,670.47
2022-10-12T00:38:26.810Z,749.57
2022-10-12T00:40:56.323Z,682.50
2022-10-12T00:43:29.306Z,664.53
2022-10-12T00:45:58.421Z,635.97
2022-10-12T00:48:27.360Z,630.57
2022-10-12T00:50:57.090Z,670.87
2022-10-12T00:53:28.960Z,699.23
2022-10-12T00:56:04.133Z,730.17
2022-10-12T00:58:32.785Z,678.80
2022-10-12T01:01:02.635Z,729.97
2022-10-12T01:03:30.875Z,699.00
2022-10-12T01:06:00.383Z,714.20
2022-10-12T01:08:29.945Z,774.77
2022-10-12T01:10:59.465Z,795.10
2022-10-12T01:13:28.041Z,791.53
2022-10-12T01:16:04.406Z,777.53
2022-10-12T01:18:41.447Z,606.27
2022-10-12T01:21:18.281Z,563.07
2022-10-12T01:24:35.768Z,606.67
2022-10-12T01:27:34.178Z,383.43
2022-10-12T01:30:14.308Z,427.63
2022-10-12T01:33:03.935Z,569.10
2022-10-12T01:35:38.759Z,548.67
2022-10-12T01:38:15.297Z,664.27
2022-10-12T01:40:51.153Z,620.37
2022-10-12T01:43:21.472Z,651.27
2022-10-12T01:45:51.239Z,762.63
2022-10-12T01:48:19.868Z,802.13
2022-10-12T01:50:51.401Z,808.50
2022-10-12T01:53:29.499Z,762.60
2022-10-12T01:56:07.734Z,718.70
2022-10-12T01:58:52.153Z,731.60
2022-10-12T02:01:31.884Z,725.83
2022-10-12T02:04:07.193Z,734.13
2022-10-12T02:06:41.212Z,781.77
2022-10-12T02:09:15.819Z,744.77
2022-10-12T02:11:46.559Z,736.73
2022-10-12T02:14:17.849Z,776.13
2022-10-12T02:16:51.733Z,762.87
2022-10-12T02:19:24.396Z,743.10
2022-10-12T02:21:55.565Z,793.93
2022-10-12T02:24:24.886Z,840.53
2022-10-12T02:26:54.987Z,842.57
2022-10-12T02:29:27.016Z,841.13
2022-10-12T02:32:02.511Z,830.43
2022-10-12T02:34:36.137Z,832.73
2022-10-12T02:37:10.241Z,797.63
2022-10-12T02:39:44.482Z,815.27
2022-10-12T02:42:17.695Z,814.10
2022-10-12T02:44:47.141Z,882.63
2022-10-12T02:47:19.094Z,781.97
2022-10-12T02:49:49.236Z,873.83
2022-10-12T02:52:17.375Z,880.90
2022-10-12T02:54:45.631Z,871.50
2022-10-12T02:57:13.758Z,923.37
2022-10-12T02:59:41.975Z,940.33
2022-10-12T03:02:10.843Z,921.50
2022-10-12T03:04:40.807Z,950.60
2022-10-12T03:07:08.860Z,912.60
2022-10-12T03:09:37.036Z,961.63
2022-10-12T03:12:05.420Z,929.97
2022-10-12T03:14:35.111Z,948.47
2022-10-12T03:17:03.158Z,963.37
2022-10-12T03:19:31.347Z,904.53
2022-10-12T03:22:01.088Z,961.00
2022-10-12T03:24:29.256Z,923.83
2022-10-12T03:26:57.398Z,962.17
2022-10-12T03:29:25.835Z,945.60
2022-10-12T03:31:54.112Z,962.20
2022-10-12T03:34:22.382Z,953.80
2022-10-12T03:36:51.280Z,979.63
2022-10-12T03:39:20.821Z,980.27
2022-10-12T03:41:49.313Z,964.53
2022-10-12T03:44:17.389Z,976.23
2022-10-12T03:46:45.716Z,970.57
2022-10-12T03:49:13.910Z,985.50
2022-10-12T03:51:42.114Z,978.67
2022-10-12T03:54:10.607Z,973.60
2022-10-12T03:56:40.173Z,978.87
2022-10-12T03:59:08.420Z,978.93
2022-10-12T04:01:36.694Z,981.53
2022-10-12T04:04:05.278Z,979.23
2022-10-12T04:06:33.691Z,978.70
2022-10-12T04:09:01.786Z,993.53
2022-10-12T04:11:29.949Z,975.10
2022-10-12T04:13:59.505Z,991.93
2022-10-12T04:16:30.364Z,968.57
2022-10-12T04:18:59.426Z,959.97
2022-10-12T04:21:31.791Z,982.73
2022-10-12T04:24:00.069Z,977.80
2022-10-12T04:26:28.253Z,976.83
2022-10-12T04:28:56.523Z,999.90
2022-10-12T04:31:26.155Z,999.90
2022-10-12T04:33:56.773Z,999.90
2022-10-12T04:36:25.410Z,999.90
2022-10-12T04:38:57.141Z,999.90
2022-10-12T04:41:29.216Z,980.00
2022-10-12T04:43:57.402Z,999.90
2022-10-12T04:46:27.261Z,999.90
2022-10-12T04:48:55.457Z,999.90
2022-10-12T04:51:23.663Z,999.90
2022-10-12T04:53:51.972Z,999.90
2022-10-12T04:56:20.393Z,999.90
2022-10-12T04:58:48.466Z,999.90
2022-10-12T05:01:16.761Z,999.90
2022-10-12T05:03:46.368Z,999.90
2022-10-12T05:06:14.435Z,999.90
2022-10-12T05:08:42.617Z,999.90
2022-10-12T05:11:10.868Z,999.90
2022-10-12T05:13:39.254Z,999.90
2022-10-12T05:16:08.179Z,999.90
2022-10-12T05:18:36.369Z,999.90
2022-10-12T05:21:06.175Z,999.90
2022-10-12T05:23:34.276Z,999.90
2022-10-12T05:26:02.417Z,999.90
2022-10-12T05:28:30.824Z,999.90
2022-10-12T05:30:59.077Z,999.90
2022-10-12T05:33:27.340Z,999.90
2022-10-12T05:35:56.635Z,999.90
2022-10-12T05:38:26.514Z,999.90
2022-10-12T05:41:00.077Z,999.90
2022-10-12T05:43:29.739Z,999.90
2022-10-12T05:45:58.002Z,999.90
2022-10-12T05:48:26.310Z,999.90
2022-10-12T05:50:54.912Z,999.90
2022-10-12T05:53:23.950Z,999.90
2022-10-12T05:55:57.871Z,999.90
2022-10-12T05:58:28.176Z,999.90
2022-10-12T06:00:56.865Z,999.90
2022-10-12T06:03:26.384Z,999.90
2022-10-12T06:05:54.973Z,999.90
2022-10-12T06:08:23.279Z,999.90
2022-10-12T06:10:52.784Z,999.90
2022-10-12T06:13:22.650Z,999.90
2022-10-12T06:15:51.164Z,999.90
2022-10-12T06:18:19.847Z,999.90
2022-10-12T06:20:49.178Z,999.90
2022-10-12T06:23:17.474Z,999.90
2022-10-12T06:25:46.958Z,999.90
2022-10-12T06:28:15.150Z,999.90
2022-10-12T06:30:44.743Z,999.90
2022-10-12T06:33:12.971Z,999.90
2022-10-12T06:35:41.429Z,999.90
2022-10-12T06:38:09.768Z,999.90
2022-10-12T06:40:37.931Z,999.90
2022-10-12T06:43:06.437Z,999.90
2022-10-12T06:45:34.767Z,999.90
2022-10-12T06:48:04.990Z,999.90
2022-10-12T06:50:33.433Z,999.90
2022-10-12T06:53:01.554Z,999.90
2022-10-12T06:55:29.788Z,999.90
2022-10-12T06:57:58.084Z,999.90
2022-10-12T07:00:26.359Z,999.90
2022-10-12T07:02:54.602Z,999.90
2022-10-12T07:05:24.561Z,999.90
2022-10-12T07:07:52.732Z,992.87
2022-10-12T07:10:21.061Z,999.90
2022-10-12T07:12:49.509Z,999.90
2022-10-12T07:15:17.949Z,999.90
2022-10-12T07:17:46.260Z,999.90
2022-10-12T07:20:14.441Z,999.90
2022-10-12T07:22:44.530Z,999.90
2022-10-12T07:25:12.694Z,999.90
2022-10-12T07:27:41.318Z,999.90
2022-10-12T07:30:11.587Z,999.90
2022-10-12T07:32:40.049Z,978.30
2022-10-12T07:35:08.947Z,980.40
2022-10-12T07:37:37.759Z,923.00
2022-10-12T07:40:09.136Z,874.27
2022-10-12T07:42:48.905Z,858.97
2022-10-12T07:45:28.457Z,692.20
2022-10-12T07:47:57.075Z,706.00
2022-10-12T07:50:25.588Z,674.80
2022-10-12T07:52:53.772Z,654.87
2022-10-12T07:55:23.308Z,615.03
2022-10-12T07:57:51.391Z,660.70
2022-10-12T08:00:21.128Z,669.57
2022-10-12T08:02:49.369Z,601.83
2022-10-12T08:05:17.849Z,630.47
2022-10-12T08:07:46.050Z,383.67
2022-10-12T08:10:14.523Z,464.63
2022-10-12T08:12:48.406Z,408.70
2022-10-12T08:15:19.495Z,334.50
2022-10-12T08:17:47.651Z,332.93
2022-10-12T08:20:15.998Z,264.67
2022-10-12T08:22:44.151Z,359.10
2022-10-12T08:25:12.409Z,364.73
2022-10-12T08:27:40.939Z,343.07
2022-10-12T08:30:12.124Z,257.50
2022-10-12T08:32:40.340Z,237.73
2022-10-12T08:35:08.699Z,109.63
2022-10-12T08:37:37.010Z,85.03
2022-10-12T08:40:06.356Z,105.53
2022-10-12T08:42:48.402Z,77.73
2022-10-12T08:45:44.296Z,50.70
2022-10-12T08:48:17.502Z,115.03
2022-10-12T08:50:52.587Z,114.30
2022-10-12T08:53:25.643Z,130.93
2022-10-12T08:55:54.201Z,97.20
2022-10-12T08:58:25.572Z,244.67
2022-10-12T09:01:00.051Z,758.97
2022-10-12T09:03:40.939Z,68.33
2022-10-12T09:06:15.157Z,58.10
2022-10-12T09:08:57.497Z,47.50
2022-10-12T09:11:41.321Z,51.40
2022-10-12T09:14:14.378Z,46.50
2022-10-12T09:16:46.701Z,51.90
2022-10-12T09:19:20.707Z,50.10
2022-10-12T09:21:50.462Z,51.77
2022-10-12T09:24:21.829Z,42.27
2022-10-12T09:26:53.227Z,67.60
2022-10-12T09:29:25.734Z,224.43
2022-10-12T09:32:17.510Z,340.90
2022-10-12T09:34:47.860Z,294.60
2022-10-12T09:37:20.574Z,373.10
2022-10-12T09:39:49.994Z,555.97
2022-10-12T09:42:18.222Z,674.50
2022-10-12T09:44:49.013Z,726.00
2022-10-12T09:47:31.387Z,736.53
2022-10-12T09:50:02.158Z,898.63
2022-10-12T09:52:41.261Z,850.67
2022-10-12T09:58:02.615Z,866.27
2022-10-12T10:00:33.108Z,930.77
2022-10-12T10:03:03.844Z,999.90
2022-10-12T10:05:34.055Z,999.90
2022-10-12T10:08:20.638Z,999.90
2022-10-12T10:10:50.523Z,999.90
2022-10-12T10:13:19.195Z,999.90
2022-10-12T10:15:50.884Z,999.90
2022-10-12T10:18:34.615Z,999.90
2022-10-12T10:21:05.262Z,933.53
2022-10-12T10:23:40.363Z,874.73
2022-10-12T10:26:11.850Z,899.17
2022-10-12T10:28:41.705Z,923.30
2022-10-12T10:31:22.930Z,967.07
2022-10-12T10:34:12.424Z,999.90
2022-10-12T10:36:45.407Z,999.90
2022-10-12T10:39:22.934Z,999.90
2022-10-12T10:41:53.293Z,975.93
2022-10-12T10:44:30.088Z,945.27
2022-10-12T10:47:01.653Z,965.47
2022-10-12T10:49:38.932Z,999.90
2022-10-12T10:52:09.366Z,986.27
2022-10-12T10:54:39.126Z,964.20
2022-10-12T10:57:14.912Z,989.43
2022-10-12T10:59:49.647Z,999.90
2022-10-12T11:02:29.789Z,999.90
2022-10-12T11:05:06.900Z,999.90
2022-10-12T11:07:40.585Z,999.90
2022-10-12T11:10:22.451Z,999.90
2022-10-12T11:12:57.417Z,999.90
2022-10-12T11:15:29.768Z,999.90
2022-10-12T11:18:04.911Z,999.90
2022-10-12T11:20:46.833Z,999.90
2022-10-12T11:23:29.545Z,999.90
2022-10-12T11:26:09.186Z,999.90
2022-10-12T11:28:39.201Z,999.90
2022-10-12T11:31:13.938Z,834.70
2022-10-12T11:33:45.660Z,999.90
2022-10-12T11:36:21.731Z,879.93
2022-10-12T11:38:53.856Z,999.90
2022-10-12T11:41:36.235Z,999.90
2022-10-12T11:44:08.495Z,999.90
2022-10-12T11:46:41.240Z,999.90
2022-10-12T11:49:15.592Z,999.90
2022-10-12T11:51:48.233Z,999.90
2022-10-12T11:54:26.011Z,999.90
2022-10-12T11:56:58.159Z,999.90
2022-10-12T11:59:35.591Z,999.90
2022-10-12T12:02:12.148Z,999.90
2022-10-12T12:04:45.256Z,999.90
2022-10-12T12:07:44.254Z,999.90
2022-10-12T12:11:04.319Z,999.90
2022-10-12T12:13:33.204Z,999.90
2022-10-12T12:16:44.702Z,999.90
2022-10-12T12:19:37.241Z,999.90
2022-10-12T12:22:18.152Z,999.90
2022-10-12T12:24:56.834Z,999.90
2022-10-12T12:27:32.544Z,999.90
2022-10-12T12:30:02.805Z,999.90
2022-10-12T12:32:44.439Z,536.67
2022-10-12T12:35:23.099Z,920.30
2022-10-12T12:38:09.322Z,906.73
2022-10-12T12:40:40.214Z,915.60
2022-10-12T12:43:37.256Z,976.83
2022-10-12T12:46:07.975Z,999.90
2022-10-12T12:49:03.764Z,976.63
2022-10-12T12:51:41.873Z,999.90
2022-10-12T12:54:18.045Z,824.30
2022-10-12T12:57:09.088Z,582.27
2022-10-12T13:00:21.410Z,797.43
2022-10-12T13:03:10.346Z,999.90
2022-10-12T13:06:03.625Z,999.90
2022-10-12T13:08:43.405Z,387.77
2022-10-12T13:11:34.562Z,999.90
2022-10-12T13:14:15.777Z,999.90
2022-10-12T13:19:48.761Z,999.90
2022-10-12T13:22:21.978Z,999.90
2022-10-12T13:24:52.378Z,999.90
2022-10-12T13:27:24.415Z,999.90
2022-10-12T13:30:00.748Z,850.10
2022-10-12T13:32:40.079Z,213.93
2022-10-12T13:35:28.370Z,999.90
2022-10-12T13:38:05.468Z,999.90
2022-10-12T13:40:38.666Z,999.90
2022-10-12T13:43:21.379Z,999.90
2022-10-12T13:45:51.062Z,999.90
2022-10-12T13:48:39.965Z,999.90
2022-10-12T13:51:23.842Z,999.90
2022-10-12T13:53:52.031Z,999.90
2022-10-12T13:56:24.180Z,999.90
2022-10-12T13:58:57.831Z,999.90
2022-10-12T14:01:27.549Z,999.90
2022-10-12T14:04:04.440Z,999.90
2022-10-12T14:06:35.018Z,999.90
2022-10-12T14:09:09.549Z,999.90
2022-10-12T14:11:39.121Z,999.90
2022-10-12T14:14:10.898Z,999.90
2022-10-12T14:16:40.377Z,999.90
2022-10-12T14:19:19.751Z,999.90
2022-10-12T14:21:49.788Z,999.90
2022-10-12T14:24:20.240Z,999.90
2022-10-12T14:26:55.603Z,999.90
2022-10-12T14:29:35.028Z,999.90
2022-10-12T14:32:06.944Z,999.90
2022-10-12T14:34:46.563Z,999.90
2022-10-12T14:37:30.886Z,999.90
2022-10-12T14:40:03.148Z,999.90
2022-10-12T14:42:34.074Z,999.90
2022-10-12T14:45:03.470Z,999.90
2022-10-12T14:47:34.703Z,999.90
2022-10-12T14:50:08.153Z,999.90
2022-10-12T14:52:43.362Z,999.90
2022-10-12T14:55:15.705Z,999.90
2022-10-12T14:57:44.529Z,713.90
2022-10-12T15:00:15.554Z,999.90
2022-10-12T15:02:45.482Z,999.90
2022-10-12T15:05:15.206Z,388.17
2022-10-12T15:07:44.551Z,999.90
2022-10-12T15:10:12.800Z,999.90
2022-10-12T15:12:41.593Z,999.90
2022-10-12T15:15:29.250Z,622.20
2022-10-12T15:17:59.319Z,845.93
2022-10-12T15:20:29.635Z,999.90
2022-10-12T15:22:57.913Z,999.90
2022-10-12T15:25:33.068Z,999.90
2022-10-12T15:28:01.473Z,999.90
2022-10-12T15:30:29.696Z,999.90
2022-10-12T15:32:59.248Z,588.60
2022-10-12T15:35:30.304Z,681.40
2022-10-12T15:37:58.321Z,835.17
2022-10-12T15:40:29.053Z,736.73
2022-10-12T15:42:57.597Z,976.97
2022-10-12T15:45:28.420Z,987.67
2022-10-12T15:47:56.483Z,927.30
2022-10-12T15:50:29.438Z,951.67
2022-10-12T15:52:58.201Z,955.87
2022-10-12T15:55:28.133Z,999.90
2022-10-12T15:57:57.144Z,999.90
2022-10-12T16:00:27.275Z,999.90
2022-10-12T16:02:57.727Z,999.90
2022-10-12T16:05:30.501Z,999.90
2022-10-12T16:07:58.611Z,999.90
2022-10-12T16:10:29.632Z,999.90
2022-10-12T16:12:58.261Z,999.90
2022-10-12T16:15:29.812Z,999.90
2022-10-12T16:17:58.759Z,999.90
2022-10-12T16:20:30.795Z,999.90
2022-10-12T16:22:59.128Z,999.90
2022-10-12T16:25:28.116Z,999.90
2022-10-12T16:27:57.850Z,999.90
2022-10-12T16:30:27.249Z,999.90
2022-10-12T16:32:55.729Z,999.90
2022-10-12T16:35:26.402Z,999.90
2022-10-12T16:37:55.931Z,999.90
2022-10-12T16:40:24.149Z,999.90
2022-10-12T16:42:53.544Z,999.90
2022-10-12T16:45:22.427Z,969.90
2022-10-12T16:47:50.981Z,991.20
2022-10-12T16:50:20.002Z,958.90
2022-10-12T16:52:48.713Z,929.33
2022-10-12T16:55:18.715Z,999.90
2022-10-12T16:57:47.226Z,999.90
2022-10-12T17:00:19.195Z,999.90
2022-10-12T17:02:47.777Z,992.33
2022-10-12T17:05:16.050Z,975.93
2022-10-12T17:07:44.123Z,885.07
2022-10-12T17:10:12.407Z,913.07
2022-10-12T17:12:43.021Z,999.90
2022-10-12T17:15:12.757Z,848.00
2022-10-12T17:17:40.981Z,978.63
2022-10-12T17:20:10.263Z,838.07
2022-10-12T17:22:38.445Z,916.07
2022-10-12T17:25:07.519Z,770.17
2022-10-12T17:27:35.743Z,685.77
2022-10-12T17:30:05.853Z,630.57
2022-10-12T17:32:37.554Z,669.13
2022-10-12T17:35:06.358Z,686.97
2022-10-12T17:37:34.727Z,594.87
2022-10-12T17:40:05.126Z,566.37
2022-10-12T17:42:33.422Z,496.97
2022-10-12T17:45:01.620Z,522.90
2022-10-12T17:47:31.208Z,451.63
2022-10-12T17:49:59.438Z,476.20
2022-10-12T17:52:27.619Z,376.23
2022-10-12T17:54:56.587Z,378.20
2022-10-12T17:57:24.820Z,464.03
2022-10-12T17:59:52.980Z,335.93
2022-10-12T18:02:22.362Z,245.60
2022-10-12T18:04:51.990Z,247.10
2022-10-12T18:07:20.324Z,252.60
2022-10-12T18:09:48.728Z,276.53
2022-10-12T18:12:17.214Z,177.30
2022-10-12T18:14:45.505Z,152.33
2022-10-12T18:17:13.832Z,132.20
2022-10-12T18:19:42.111Z,134.93
2022-10-12T18:22:11.743Z,114.17
2022-10-12T18:24:40.467Z,107.13
2022-10-12T18:27:09.606Z,59.47
2022-10-12T18:29:38.457Z,56.37
2022-10-12T18:32:08.391Z,49.30
2022-10-12T18:34:38.557Z,45.90
2022-10-12T18:37:06.750Z,47.90
2022-10-12T18:39:36.257Z,48.30
2022-10-12T18:42:04.659Z,42.80
2022-10-12T18:44:32.832Z,49.00
2022-10-12T18:47:01.130Z,46.23
2022-10-12T18:49:29.427Z,38.23
2022-10-12T18:51:57.560Z,43.03
2022-10-12T18:54:25.794Z,33.67
2022-10-12T18:56:55.325Z,41.53
2022-10-12T18:59:23.535Z,36.10
2022-10-12T19:01:51.646Z,32.07
2022-10-12T19:04:21.310Z,37.40
2022-10-12T19:06:51.449Z,62.10
2022-10-12T19:09:22.506Z,45.20
2022-10-12T19:11:50.633Z,36.80
2022-10-12T19:14:20.314Z,48.90
2022-10-12T19:16:52.355Z,43.93
2022-10-12T19:19:21.602Z,32.13
2022-10-12T19:21:50.523Z,33.70
2022-10-12T19:24:19.283Z,53.13
2022-10-12T19:26:48.130Z,35.13
2022-10-12T19:29:16.423Z,48.37
2022-10-12T19:31:48.410Z,34.03
2022-10-12T19:34:18.873Z,40.70
2022-10-12T19:36:47.527Z,38.53
2022-10-12T19:39:17.992Z,69.10
2022-10-12T19:41:47.034Z,71.87
2022-10-12T19:44:15.980Z,45.20
2022-10-12T19:46:47.286Z,48.57
2022-10-12T19:49:18.361Z,45.97
2022-10-12T19:51:46.714Z,45.03
2022-10-12T19:54:16.036Z,49.93
2022-10-12T19:56:44.359Z,40.67
2022-10-12T19:59:12.721Z,56.93
2022-10-12T20:01:41.662Z,32.10
2022-10-12T20:04:12.006Z,44.57
2022-10-12T20:06:41.671Z,52.90
2022-10-12T20:09:10.768Z,45.50
2022-10-12T20:11:39.199Z,50.67
2022-10-12T20:14:08.290Z,52.93
2022-10-12T20:16:38.019Z,32.37
2022-10-12T20:19:07.037Z,58.77
2022-10-12T20:21:36.547Z,28.50
2022-10-12T20:24:09.947Z,37.47
2022-10-12T20:26:38.389Z,38.87
2022-10-12T20:29:06.658Z,45.03
2022-10-12T20:31:34.825Z,38.17
2022-10-12T20:34:03.032Z,57.07
2022-10-12T20:36:32.214Z,51.57
2022-10-12T20:39:00.897Z,45.73
2022-10-12T20:41:30.609Z,52.20
2022-10-12T20:44:00.159Z,51.53
2022-10-12T20:46:30.684Z,45.80
2022-10-12T20:49:01.264Z,47.13
2022-10-12T20:51:31.554Z,66.67
2022-10-12T20:54:01.082Z,70.90
2022-10-12T20:56:32.068Z,77.70
2022-10-12T20:59:00.752Z,87.50
2022-10-12T21:01:29.349Z,118.03
2022-10-12T21:03:57.924Z,117.40
2022-10-12T21:06:26.337Z,132.73
2022-10-12T21:08:56.575Z,125.17
2022-10-12T21:11:24.775Z,134.80
2022-10-12T21:13:55.495Z,137.80
2022-10-12T21:16:24.030Z,144.53
2022-10-12T21:18:55.130Z,129.00
2022-10-12T21:21:24.045Z,104.97
2022-10-12T21:23:55.640Z,102.03
2022-10-12T21:26:26.218Z,128.37
2022-10-12T21:28:56.065Z,171.33
2022-10-12T21:31:28.161Z,178.33
2022-10-12T21:33:57.717Z,203.03
2022-10-12T21:36:27.435Z,229.70
2022-10-12T21:38:55.993Z,254.50
2022-10-12T21:41:26.125Z,246.03
2022-10-12T21:43:57.163Z,162.83
2022-10-12T21:46:27.374Z,130.47
2022-10-12T21:48:55.817Z,102.93
2022-10-12T21:51:25.058Z,98.10
2022-10-12T21:53:53.550Z,120.43
2022-10-12T21:56:23.982Z,94.80
2022-10-12T21:58:53.539Z,137.47
2022-10-12T22:01:25.287Z,128.60
2022-10-12T22:03:54.524Z,187.10
2022-10-12T22:06:24.622Z,141.90
2022-10-12T22:08:56.348Z,126.80
2022-10-12T22:11:26.761Z,98.13
2022-10-12T22:13:58.729Z,150.83
2022-10-12T22:16:29.238Z,154.17
2022-10-12T22:18:58.840Z,91.40
2022-10-12T22:21:34.179Z,70.90
2022-10-12T22:24:02.661Z,53.63
2022-10-12T22:26:31.067Z,144.47
2022-10-12T22:29:02.106Z,64.87
2022-10-12T22:31:31.812Z,77.97
2022-10-12T22:34:00.082Z,86.73
2022-10-12T22:36:30.970Z,92.03
2022-10-12T22:39:00.167Z,81.87
2022-10-12T22:41:28.375Z,63.97
2022-10-12T22:43:57.848Z,57.97
2022-10-12T22:46:26.983Z,55.97
2022-10-12T22:48:56.649Z,73.77
2022-10-12T22:51:30.966Z,50.83
2022-10-12T22:53:59.349Z,49.33
2022-10-12T22:56:27.617Z,46.40
2022-10-12T22:58:56.610Z,49.13
2022-10-12T23:01:25.480Z,49.70
2022-10-12T23:03:56.290Z,43.23
2022-10-12T23:06:24.820Z,50.67
2022-10-12T23:08:54.134Z,37.73
2022-10-12T23:11:24.599Z,46.90
2022-10-12T23:13:52.870Z,51.27
2022-10-12T23:16:24.040Z,23.20
2022-10-12T23:18:59.219Z,26.70
2022-10-12T23:21:28.853Z,22.63
2022-10-12T23:23:58.670Z,25.80
2022-10-12T23:26:28.679Z,27.60
2022-10-12T23:28:57.158Z,25.93
2022-10-12T23:31:27.447Z,24.73
2022-10-12T23:33:58.807Z,22.47
2022-10-12T23:36:27.030Z,22.77
2022-10-12T23:38:55.255Z,24.23
2022-10-12T23:41:23.748Z,25.43
2022-10-12T23:43:52.022Z,18.10
2022-10-12T23:46:20.295Z,23.90
2022-10-12T23:48:48.683Z,23.30
2022-10-12T23:51:18.868Z,23.63
2022-10-12T23:53:47.168Z,21.50
2022-10-12T23:56:15.652Z,24.20
2022-10-12T23:58:43.978Z,26.20
